Terminal Aerodrome Forecast
Issued by NWS Tampa Bay Area, FL

Home | Current Version | Previous Version | Text Only | Print | Product List | Glossary On
Versions: 1 2 3 4 5 6 7 8 9 10 11 12 13 14
028
FTUS42 KTBW 292342
TAFSRQ
TAF
KSRQ 292342Z 3000/3024 19011KT P6SM FEW070 BKN250
     FM300100 12010KT P6SM SCT040 BKN250
     FM300900 12010KT P6SM SCT025 BKN100
     FM301400 14014G23KT P6SM BKN035 OVC100
     FM302000 19014G20KT P6SM SCT070 SCT250=

USA.gov is the U.S. government's official web portal to all federal, state and local government web resources and services.